Olympic Champion — SYWD — position and weather

sailwx.info

Track history (hours):
 
Tides and Currents Weather Stations Pressure Air Temp Water Temp Dewpoint Dewpoint Depression Visibility Wind Speed Wind Dir Waves Ship Positions

Olympic Champion

Last reported at 2017-Aug-16 21:31 UTC. Time now 2017-Aug-16 21:48 UTC.
Position N 40°42' E 018°45'.

Length 204 m; draft 6.4 m.

Type: Ship. MMSI: 237280000.

Date/timePositionNaut miles runAvg speedWind from/ knotsBaromVisibWave heightAir tempDewpointWater temp
2017-Aug-16 21:31N 40°42' E 018°45'1427.6
2017-Aug-16 21:00N 40°32' E 018°58'1427.4
2017-Aug-16 20:30N 40°22' E 019°12'1427.8
2017-Aug-16 20:00N 40°13' E 019°24'1428.3
2017-Aug-16 19:30N 40°03' E 019°38'1427.7
2017-Aug-16 19:00N 39°54' E 019°51'4 0.2
2017-Aug-16 01:38N 39°51' E 019°54'2326.5
2017-Aug-16 00:45N 40°05' E 019°31'31728.2
2017-Aug-15 13:31N 43°29' E 014°05'228.1
2017-Aug-15 13:28N 43°30' E 014°04'1327.7
2017-Aug-15 13:00N 43°39' E 013°51'1018.3
2017-Aug-15 12:27N 43°40' E 013°37'26619.4
2017-Aug-14 22:45N 40°59' E 018°23'727.6
2017-Aug-14 22:29N 40°54' E 018°29'1427.3
2017-Aug-14 21:58N 40°45' E 018°43'1327.4
2017-Aug-14 21:30N 40°36' E 018°55'1427.5
2017-Aug-14 20:59N 40°25' E 019°08'1427.4
2017-Aug-14 20:29N 40°16' E 019°21'  
2017-Aug-12 02:03N 40°42' E 018°47'131 8.1
2017-Aug-11 09:43N 38°54' E 020°24'827.5
2017-Aug-11 09:26N 39°01' E 020°22'4913.1
2017-Aug-11 05:39N 39°47' E 019°57'320.8
2017-Aug-11 05:31N 39°50' E 019°55'1325.4
2017-Aug-11 05:00N 39°59' E 019°43'1427.0
2017-Aug-11 04:30N 40°07' E 019°29'1327.0
2017-Aug-11 04:01N 40°15' E 019°15'1427.4
2017-Aug-11 03:31N 40°23' E 019°01'1427.4
2017-Aug-11 03:01N 40°32' E 018°47'1427.2
2017-Aug-11 02:31N 40°40' E 018°32'1427.3
2017-Aug-11 01:59N 40°49' E 018°17'1327.3
2017-Aug-11 01:30N 40°57' E 018°04'1627.3
2017-Aug-11 00:56N 41°07' E 017°48'19527.3
2017-Aug-10 17:48N 43°14' E 014°29'827.1
2017-Aug-10 17:31N 43°19' E 014°21'1427.2
2017-Aug-10 17:00N 43°28' E 014°07'1427.1
2017-Aug-10 16:30N 43°38' E 013°53'1019.9
2017-Aug-10 16:00N 43°41' E 013°40'816.2
2017-Aug-10 15:29N 43°38' E 013°29'1 0.9
2017-Aug-10 13:57N 43°37' E 013°30'0 0.0
2017-Aug-10 13:30N 43°37' E 013°30'3 3.8
2017-Aug-10 12:50N 43°39' E 013°32'1216.1
2017-Aug-10 12:06N 43°41' E 013°48'227.4
2017-Aug-10 12:01N 43°40' E 013°51'1427.4
2017-Aug-10 11:31N 43°32' E 014°06'1427.4
2017-Aug-10 11:00N 43°25' E 014°22'1827.6
2017-Aug-10 10:21N 43°14' E 014°43'1027.9
2017-Aug-10 10:00N 43°09' E 014°54'3527.7
2017-Aug-10 08:44N 42°49' E 015°33'827.9
2017-Aug-10 08:28N 42°45' E 015°41'1327.8
2017-Aug-10 08:00N 42°38' E 015°56'12527.5
2017-Aug-10 03:28N 41°14' E 018°01'1327.5
2017-Aug-10 03:00N 41°05' E 018°13'1427.5
2017-Aug-10 02:30N 40°56' E 018°26'1427.6
2017-Aug-10 02:00N 40°47' E 018°40'1427.7
2017-Aug-10 01:31N 40°37' E 018°53'1427.8
2017-Aug-10 01:01N 40°27' E 019°06'1428.1
2017-Aug-10 00:31N 40°17' E 019°19'1428.4
2017-Aug-10 00:00N 40°08' E 019°32'1427.7
2017-Aug-09 23:30N 39°58' E 019°46'6 0.3
2017-Aug-09 06:03N 39°53' E 019°51'127.0
2017-Aug-09 06:00N 39°54' E 019°50'2627.1
2017-Aug-09 05:02N 40°11' E 019°24'827.2
2017-Aug-09 04:45N 40°16' E 019°15'727.6
2017-Aug-09 04:30N 40°21' E 019°09'1427.5
2017-Aug-09 04:00N 40°29' E 018°55'1427.4
2017-Aug-09 03:31N 40°38' E 018°41'1427.5
2017-Aug-09 03:01N 40°46' E 018°27'1427.3
2017-Aug-09 02:31N 40°55' E 018°13'1427.3
2017-Aug-09 02:01N 41°03' E 017°59'17527.2
2017-Aug-08 19:34N 42°56' E 014°58'226.9
2017-Aug-08 19:30N 42°57' E 014°56'2126.8
2017-Aug-08 18:43N 43°11' E 014°35'726.9
2017-Aug-08 18:27N 43°16' E 014°27'3226.8
2017-Aug-08 17:16N 43°37' E 013°55'23 4.0
2017-Aug-08 11:28N 43°23' E 014°20'17227.4
2017-Aug-08 05:10N 41°31' E 017°17'727.4
2017-Aug-08 04:54N 41°25' E 017°24'1127.5
2017-Aug-08 04:30N 41°18' E 017°35'1427.4
2017-Aug-08 04:01N 41°09' E 017°48'1427.2
2017-Aug-08 03:30N 40°59' E 018°01'1327.0
2017-Aug-08 03:01N 40°50' E 018°13'1526.9
2017-Aug-08 02:28N 40°38' E 018°26'1227.1
2017-Aug-08 02:00N 40°29' E 018°36'1427.2
2017-Aug-08 01:31N 40°18' E 018°47'1427.2
2017-Aug-08 01:01N 40°07' E 018°58'1427.2
2017-Aug-08 00:31N 39°57' E 019°09'1427.3
2017-Aug-08 00:01N 39°46' E 019°19'1427.5
2017-Aug-07 23:31N 39°35' E 019°30'1427.4
2017-Aug-07 23:01N 39°24' E 019°41'1427.4
2017-Aug-07 22:30N 39°13' E 019°52'1327.4
2017-Aug-07 22:01N 39°02' E 020°03'1427.1
2017-Aug-07 21:31N 38°52' E 020°14'2227.6
2017-Aug-07 20:43N 38°34' E 020°31'627.0
2017-Aug-07 20:30N 38°31' E 020°38'1327.4
2017-Aug-07 20:00N 38°24' E 020°52'12810.0
2017-Aug-07 07:15N 40°11' E 019°20'1127.0
2017-Aug-07 06:49N 40°18' E 019°08'927.4
2017-Aug-07 06:30N 40°23' E 018°59'1327.1
2017-Aug-07 06:00N 40°31' E 018°45'1427.1
2017-Aug-07 05:30N 40°40' E 018°31'1427.2
2017-Aug-07 05:00N 40°48' E 018°17'3127.5
2017-Aug-07 03:52N 41°08' E 017°45'  
Track history (hours):
 
Tides and Currents Weather Stations Pressure Air Temp Water Temp Dewpoint Dewpoint Depression Visibility Wind Speed Wind Dir Waves Ship Positions

Olympic Champion

Last reported at 2017-Aug-16 21:31 UTC. Time now 2017-Aug-16 21:48 UTC.
Position N 40°42' E 018°45'.

Length 204 m; draft 6.4 m.

Type: Ship. MMSI: 237280000.

Date/timePositionNaut miles runAvg speedWind from/ knotsBaromVisibWave heightAir tempDewpointWater temp
2017-Aug-16 21:31N 40°42' E 018°45'1427.6
2017-Aug-16 21:00N 40°32' E 018°58'1427.4
2017-Aug-16 20:30N 40°22' E 019°12'1427.8
2017-Aug-16 20:00N 40°13' E 019°24'1428.3
2017-Aug-16 19:30N 40°03' E 019°38'1427.7
2017-Aug-16 19:00N 39°54' E 019°51'4 0.2
2017-Aug-16 01:38N 39°51' E 019°54'2326.5
2017-Aug-16 00:45N 40°05' E 019°31'31728.2
2017-Aug-15 13:31N 43°29' E 014°05'228.1
2017-Aug-15 13:28N 43°30' E 014°04'1327.7
2017-Aug-15 13:00N 43°39' E 013°51'1018.3
2017-Aug-15 12:27N 43°40' E 013°37'26619.4
2017-Aug-14 22:45N 40°59' E 018°23'727.6
2017-Aug-14 22:29N 40°54' E 018°29'1427.3
2017-Aug-14 21:58N 40°45' E 018°43'1327.4
2017-Aug-14 21:30N 40°36' E 018°55'1427.5
2017-Aug-14 20:59N 40°25' E 019°08'1427.4
2017-Aug-14 20:29N 40°16' E 019°21'  
2017-Aug-12 02:03N 40°42' E 018°47'131 8.1
2017-Aug-11 09:43N 38°54' E 020°24'827.5
2017-Aug-11 09:26N 39°01' E 020°22'4913.1
2017-Aug-11 05:39N 39°47' E 019°57'320.8
2017-Aug-11 05:31N 39°50' E 019°55'1325.4
2017-Aug-11 05:00N 39°59' E 019°43'1427.0
2017-Aug-11 04:30N 40°07' E 019°29'1327.0
2017-Aug-11 04:01N 40°15' E 019°15'1427.4
2017-Aug-11 03:31N 40°23' E 019°01'1427.4
2017-Aug-11 03:01N 40°32' E 018°47'1427.2
2017-Aug-11 02:31N 40°40' E 018°32'1427.3
2017-Aug-11 01:59N 40°49' E 018°17'1327.3
2017-Aug-11 01:30N 40°57' E 018°04'1627.3
2017-Aug-11 00:56N 41°07' E 017°48'19527.3
2017-Aug-10 17:48N 43°14' E 014°29'827.1
2017-Aug-10 17:31N 43°19' E 014°21'1427.2
2017-Aug-10 17:00N 43°28' E 014°07'1427.1
2017-Aug-10 16:30N 43°38' E 013°53'1019.9
2017-Aug-10 16:00N 43°41' E 013°40'816.2
2017-Aug-10 15:29N 43°38' E 013°29'1 0.9
2017-Aug-10 13:57N 43°37' E 013°30'0 0.0
2017-Aug-10 13:30N 43°37' E 013°30'3 3.8
2017-Aug-10 12:50N 43°39' E 013°32'1216.1
2017-Aug-10 12:06N 43°41' E 013°48'227.4
2017-Aug-10 12:01N 43°40' E 013°51'1427.4
2017-Aug-10 11:31N 43°32' E 014°06'1427.4
2017-Aug-10 11:00N 43°25' E 014°22'1827.6
2017-Aug-10 10:21N 43°14' E 014°43'1027.9
2017-Aug-10 10:00N 43°09' E 014°54'3527.7
2017-Aug-10 08:44N 42°49' E 015°33'827.9
2017-Aug-10 08:28N 42°45' E 015°41'1327.8
2017-Aug-10 08:00N 42°38' E 015°56'12527.5
2017-Aug-10 03:28N 41°14' E 018°01'1327.5
2017-Aug-10 03:00N 41°05' E 018°13'1427.5
2017-Aug-10 02:30N 40°56' E 018°26'1427.6
2017-Aug-10 02:00N 40°47' E 018°40'1427.7
2017-Aug-10 01:31N 40°37' E 018°53'1427.8
2017-Aug-10 01:01N 40°27' E 019°06'1428.1
2017-Aug-10 00:31N 40°17' E 019°19'1428.4
2017-Aug-10 00:00N 40°08' E 019°32'1427.7
2017-Aug-09 23:30N 39°58' E 019°46'6 0.3
2017-Aug-09 06:03N 39°53' E 019°51'127.0
2017-Aug-09 06:00N 39°54' E 019°50'2627.1
2017-Aug-09 05:02N 40°11' E 019°24'827.2
2017-Aug-09 04:45N 40°16' E 019°15'727.6
2017-Aug-09 04:30N 40°21' E 019°09'1427.5
2017-Aug-09 04:00N 40°29' E 018°55'1427.4
2017-Aug-09 03:31N 40°38' E 018°41'1427.5
2017-Aug-09 03:01N 40°46' E 018°27'1427.3
2017-Aug-09 02:31N 40°55' E 018°13'1427.3
2017-Aug-09 02:01N 41°03' E 017°59'17527.2
2017-Aug-08 19:34N 42°56' E 014°58'226.9
2017-Aug-08 19:30N 42°57' E 014°56'2126.8
2017-Aug-08 18:43N 43°11' E 014°35'726.9
2017-Aug-08 18:27N 43°16' E 014°27'3226.8
2017-Aug-08 17:16N 43°37' E 013°55'23 4.0
2017-Aug-08 11:28N 43°23' E 014°20'17227.4
2017-Aug-08 05:10N 41°31' E 017°17'727.4
2017-Aug-08 04:54N 41°25' E 017°24'1127.5
2017-Aug-08 04:30N 41°18' E 017°35'1427.4
2017-Aug-08 04:01N 41°09' E 017°48'1427.2
2017-Aug-08 03:30N 40°59' E 018°01'1327.0
2017-Aug-08 03:01N 40°50' E 018°13'1526.9
2017-Aug-08 02:28N 40°38' E 018°26'1227.1
2017-Aug-08 02:00N 40°29' E 018°36'1427.2
2017-Aug-08 01:31N 40°18' E 018°47'1427.2
2017-Aug-08 01:01N 40°07' E 018°58'1427.2
2017-Aug-08 00:31N 39°57' E 019°09'1427.3
2017-Aug-08 00:01N 39°46' E 019°19'1427.5
2017-Aug-07 23:31N 39°35' E 019°30'1427.4
2017-Aug-07 23:01N 39°24' E 019°41'1427.4
2017-Aug-07 22:30N 39°13' E 019°52'1327.4
2017-Aug-07 22:01N 39°02' E 020°03'1427.1
2017-Aug-07 21:31N 38°52' E 020°14'2227.6
2017-Aug-07 20:43N 38°34' E 020°31'627.0
2017-Aug-07 20:30N 38°31' E 020°38'1327.4
2017-Aug-07 20:00N 38°24' E 020°52'12810.0
2017-Aug-07 07:15N 40°11' E 019°20'1127.0
2017-Aug-07 06:49N 40°18' E 019°08'927.4
2017-Aug-07 06:30N 40°23' E 018°59'1327.1
2017-Aug-07 06:00N 40°31' E 018°45'1427.1
2017-Aug-07 05:30N 40°40' E 018°31'1427.2
2017-Aug-07 05:00N 40°48' E 018°17'3127.5
2017-Aug-07 03:52N 41°08' E 017°45'  

Dump ship's entire track history